Vers la page d'accueil de NAV CANADA Ouverture d'une nouvelle session Chercher sur le site AWWS Clause de non-reponsabilité To the equivalent English page Trucs et astuces FAQ Quoi de neuf sur le site Vers la section Prévisions et observations / NOTAM Vers le site web pour <<Déposer un plan de vol>> Publications et liens importants Mise à jour du profil d'usager Numéros de téléphone des FIC Mes données météo personnelles Données météo de route Données météo régionales Données météo locales Vers la section Prévisions et observations / NOTAM
Requête générée le 2018/10/19 à 15:58:25 UTC. L'information météorologique disponible à ce moment est affichée.

METAR/TAF

Si vous notez des différences entre le METAR/TAF codé et le METAR/TAF en langage clair, veuillez utiliser la version codée. Les bulletins LWIS ne sont pas décodés en langage clair.

MONTREAL/ST-HUBERT/QC    (voir Cam météo)

METAR CYHU 191500Z AUTO 23014G23KT 9SM CLR 11/04 A2994 RMK SLP140=
METAR
LIEU
CYHU - MONTREAL/ST-HUBERT/QC
DATE - HEURE
19 OCTOBRE 2018 - 1500 UTC
VENT
230 VRAIS @ 14  NOEUDS
RAFALES
23 NOEUDS
VISIBILITE
9 MILLES TERR.
PORTEE VISUELLE DE PISTE
METEO
NEBULOSITE
CIEL DEGAGE
TEMP / PT DE ROSEE
11 C / 4 C
ALTIMETRE
29.94 PO HG
TEMPS RECENT
CISAILLEMENT

METAR CYHU 191400Z AUTO 22015G21KT 9SM CLR 09/03 A2997 RMK SLP153=
METAR
LIEU
CYHU - MONTREAL/ST-HUBERT/QC
DATE - HEURE
19 OCTOBRE 2018 - 1400 UTC
VENT
220 VRAIS @ 15  NOEUDS
RAFALES
21 NOEUDS
VISIBILITE
9 MILLES TERR.
PORTEE VISUELLE DE PISTE
METEO
NEBULOSITE
CIEL DEGAGE
TEMP / PT DE ROSEE
9 C / 3 C
ALTIMETRE
29.97 PO HG
TEMPS RECENT
CISAILLEMENT

METAR CYHU 191300Z AUTO 22014G20KT 9SM CLR 07/02 A3000 RMK SLP162=
METAR
LIEU
CYHU - MONTREAL/ST-HUBERT/QC
DATE - HEURE
19 OCTOBRE 2018 - 1300 UTC
VENT
220 VRAIS @ 14  NOEUDS
RAFALES
20 NOEUDS
VISIBILITE
9 MILLES TERR.
PORTEE VISUELLE DE PISTE
METEO
NEBULOSITE
CIEL DEGAGE
TEMP / PT DE ROSEE
7 C / 2 C
ALTIMETRE
30.00 PO HG
TEMPS RECENT
CISAILLEMENT

TAF AMD CYHU 191216Z 1912/2012 23012G22KT P6SM BKN220 FM191400 23015G25KT P6SM FEW025 FM191700 23020G30KT P6SM SCT030 FM192300 23015G25KT P6SM FEW025 OVC150 FM200400 22015G25KT P6SM OVC100 FM200700 21015G25KT P6SM -RA OVC030 FM201100 21017G27KT 3SM -RA BR OVC020 RMK FCST BASED ON AUTO OBS. NXT FCST BY 191800Z=
TAF MODIFIE
LIEU

CYHU - MONTREAL/ST-HUBERT/QC
VALIDITE [UTC]
19 OCT - 1216 à
20 OCT - 1200
 
PERIODES
[UTC]
VENT
[DEGRES VRAIS]
VISIBILITE
[MILLES TERR.]
METEO
NEBULOSITE
[PIEDS AGL]
 
19 OCT - 1200 à
19 OCT - 1400
230 @ 12 NOEUDS
RAFALES 22 NOEUDS
6+
---
22000 FRAGMENTES
 
19 OCT - 1400 à
19 OCT - 1700
230 @ 15 NOEUDS
RAFALES 25 NOEUDS
6+
---
2500 QUELQUES
 
19 OCT - 1700 à
19 OCT - 2300
230 @ 20 NOEUDS
RAFALES 30 NOEUDS
6+
---
3000 EPARS
 
19 OCT - 2300 à
20 OCT - 0400
230 @ 15 NOEUDS
RAFALES 25 NOEUDS
6+
---
2500 QUELQUES
15000 QUELQUES
15000 CIEL COUVERT
 
20 OCT - 0400 à
20 OCT - 0700
220 @ 15 NOEUDS
RAFALES 25 NOEUDS
6+
---
10000 CIEL COUVERT
 
20 OCT - 0700 à
20 OCT - 1100
210 @ 15 NOEUDS
RAFALES 25 NOEUDS
6+
PLUIE FAIBLE
3000 CIEL COUVERT
 
20 OCT - 1100 à
20 OCT - 1200
210 @ 17 NOEUDS
RAFALES 27 NOEUDS
3
PLUIE FAIBLE
BRUME
2000 CIEL COUVERT
REMARQUES
LA PREVISION EST FONDEE SUR DES OBSERVATIONS AUTOMATISEES - LA PREVISION SUIVANTE SERA EMISE POUR 1800 UTC LE 19


Votre heure Heure UTC
Données météorologiques fournies par Environnement Canada et NAV CANADA